Time;durP1;ratioP1;P1;durP2;ratioP2;P2;SDS_P1;SDS_P2;PMS_P1;PMS_P2;Temp;Humidity;BMP_temperature;BMP_pressure;BME280_temperature;BME280_humidity;BME280_pressure;Samples;Min_cycle;Max_cycle;Signal;HPM_P1;HPM_P2
2022/03/01 00:00:24;;;;;;;;;87.00;68.67;;;;;4.95;72.60;100433.59;4989769;28;9292;-78
2022/03/01 00:03:06;;;;;;;;;83.00;67.00;;;;;5.11;71.36;100428.19;4990033;28;9298;-81
2022/03/01 00:05:35;;;;;;;;;78.00;62.67;;;;;5.20;71.16;100425.91;4986273;28;9438;-79
2022/03/01 00:08:05;;;;;;;;;88.33;69.33;;;;;5.33;70.48;100422.06;4986036;28;9202;-78
2022/03/01 00:10:34;;;;;;;;;82.00;66.75;;;;;5.46;70.17;100434.59;4997170;28;9499;-79
2022/03/01 00:13:02;;;;;;;;;89.25;70.50;;;;;5.55;69.66;100418.47;5007376;28;9482;-79
2022/03/01 00:15:32;;;;;;;;;85.33;66.00;;;;;5.65;69.50;100424.84;5007329;28;9652;-79
2022/03/01 00:18:01;;;;;;;;;82.67;66.67;;;;;5.76;69.12;100426.06;4988599;28;9528;-80
2022/03/01 00:20:33;;;;;;;;;76.67;60.67;;;;;5.84;68.67;100422.06;5002290;28;9330;-79
2022/03/01 00:23:01;;;;;;;;;86.33;65.33;;;;;5.89;68.02;100417.00;4995151;28;9228;-78
2022/03/01 00:25:29;;;;;;;;;84.33;67.33;;;;;5.95;67.69;100416.34;5010437;28;9493;-79
2022/03/01 00:27:59;;;;;;;;;74.00;54.00;;;;;6.00;67.67;100420.84;4994063;28;9204;-77
2022/03/01 00:30:28;;;;;;;;;86.33;67.67;;;;;6.06;67.22;100412.41;4990236;28;9606;-78
2022/03/01 00:32:58;;;;;;;;;82.00;63.33;;;;;6.13;67.00;100416.97;5010071;28;9103;-77
2022/03/01 00:35:27;;;;;;;;;88.00;67.33;;;;;6.17;66.65;100412.75;4990382;28;8961;-78
2022/03/01 00:37:57;;;;;;;;;85.00;66.67;;;;;6.20;66.53;100403.38;4994805;28;9443;-78
2022/03/01 00:40:25;;;;;;;;;82.33;64.33;;;;;6.21;66.55;100404.25;4990515;28;9221;-82
2022/03/01 00:42:54;;;;;;;;;83.67;64.33;;;;;6.27;66.20;100407.00;5011257;28;9282;-79
2022/03/01 00:45:24;;;;;;;;;72.50;54.75;;;;;6.31;65.73;100410.59;4977966;28;10066;-79
2022/03/01 00:47:52;;;;;;;;;84.33;67.33;;;;;6.34;65.70;100402.91;5011715;28;9529;-81
2022/03/01 00:50:23;;;;;;;;;91.50;71.75;;;;;6.36;65.90;100404.72;5012642;28;10279;-78
2022/03/01 00:52:51;;;;;;;;;88.00;69.00;;;;;6.38;65.63;100395.28;5009032;28;9693;-79
2022/03/01 00:55:20;;;;;;;;;94.25;74.75;;;;;6.40;65.47;100396.19;5024247;28;9513;-84
2022/03/01 00:57:48;;;;;;;;;93.50;71.25;;;;;6.33;65.28;100394.28;5043951;28;9685;-77
2022/03/01 01:00:18;;;;;;;;;92.25;71.25;;;;;6.31;65.30;100389.88;5042240;28;9916;-78
2022/03/01 01:02:48;;;;;;;;;88.25;67.50;;;;;6.33;65.85;100390.78;5025823;28;9848;-79
2022/03/01 01:05:18;;;;;;;;;94.50;75.25;;;;;6.36;65.66;100390.88;5029490;28;9816;-77
2022/03/01 01:07:48;;;;;;;;;85.75;70.50;;;;;6.35;65.45;100394.28;4976591;28;9892;-78
2022/03/01 01:10:16;;;;;;;;;95.25;75.50;;;;;6.34;65.77;100393.44;5022434;28;9794;-80
2022/03/01 01:12:47;;;;;;;;;91.50;71.25;;;;;6.36;65.35;100391.75;5011522;28;9889;-83
2022/03/01 01:15:18;;;;;;;;;84.00;65.25;;;;;6.37;65.52;100390.94;4997613;28;9714;-77
2022/03/01 01:17:46;;;;;;;;;83.67;66.33;;;;;6.35;64.48;100392.59;5011176;28;9546;-80
2022/03/01 01:20:17;;;;;;;;;83.33;64.33;;;;;6.33;64.32;100388.19;5029059;28;9373;-79
2022/03/01 01:22:46;;;;;;;;;78.33;61.67;;;;;6.35;64.38;100390.03;4993988;28;9372;-78
2022/03/01 01:25:19;;;;;;;;;87.33;69.00;;;;;6.38;64.63;100390.09;5016804;28;9209;-78
2022/03/01 01:27:51;;;;;;;;;83.67;65.67;;;;;6.43;64.40;100391.13;5016463;28;9263;-79
2022/03/01 01:30:22;;;;;;;;;84.00;66.33;;;;;6.44;64.23;100394.56;5015539;28;9374;-79
2022/03/01 01:32:51;;;;;;;;;80.33;65.33;;;;;6.47;64.18;100386.91;4993593;28;9275;-79
2022/03/01 01:35:21;;;;;;;;;74.67;60.00;;;;;6.46;64.17;100389.44;5010146;28;9185;-79
2022/03/01 01:37:51;;;;;;;;;77.00;63.33;;;;;6.49;64.14;100392.13;4992233;28;9242;-82
2022/03/01 01:40:24;;;;;;;;;86.67;64.00;;;;;6.51;64.10;100388.75;4988285;28;8966;-81
2022/03/01 01:42:53;;;;;;;;;78.00;62.67;;;;;6.51;63.85;100375.78;5007885;28;9010;-78
2022/03/01 01:45:23;;;;;;;;;78.67;61.67;;;;;6.49;63.67;100377.47;4989137;28;8988;-78
2022/03/01 01:47:54;;;;;;;;;73.67;61.00;;;;;6.44;63.75;100379.91;4971650;28;9063;-80
2022/03/01 01:50:23;;;;;;;;;79.67;65.00;;;;;6.37;63.82;100378.00;4955684;28;9042;-79
2022/03/01 01:52:54;;;;;;;;;86.67;67.00;;;;;6.16;64.31;100377.31;4987620;28;9286;-81
2022/03/01 01:55:27;;;;;;;;;83.33;63.67;;;;;6.13;64.54;100378.13;4971550;28;9418;-76
2022/03/01 01:57:58;;;;;;;;;87.67;65.33;;;;;6.12;64.51;100380.66;4955892;28;9186;-78
2022/03/01 02:00:28;;;;;;;;;87.00;65.67;;;;;6.13;64.75;100375.53;4988347;28;9111;-79
2022/03/01 02:02:59;;;;;;;;;81.00;63.67;;;;;6.14;64.44;100369.50;4971658;28;9451;-81
2022/03/01 02:05:29;;;;;;;;;72.33;60.33;;;;;5.92;64.88;100380.00;4955388;28;9260;-78
2022/03/01 02:07:58;;;;;;;;;72.00;57.00;;;;;5.93;64.95;100380.03;4969954;28;9069;-82
2022/03/01 02:10:29;;;;;;;;;76.25;60.75;;;;;5.97;65.27;100376.78;4965787;28;8955;-77
2022/03/01 02:12:59;;;;;;;;;80.00;62.25;;;;;5.99;64.96;100377.69;4987781;28;8876;-78
2022/03/01 02:15:29;;;;;;;;;81.67;65.00;;;;;6.01;65.17;100372.53;4987868;28;8887;-78
2022/03/01 02:17:58;;;;;;;;;82.33;63.33;;;;;6.02;64.98;100370.00;4967753;28;9311;-77
2022/03/01 02:20:31;;;;;;;;;83.00;64.67;;;;;6.01;65.11;100368.28;4951771;28;9985;-78
2022/03/01 02:23:01;;;;;;;;;75.00;60.33;;;;;5.99;65.22;100364.75;4951817;28;9140;-78
2022/03/01 02:25:31;;;;;;;;;82.33;63.67;;;;;5.96;64.93;100358.59;4967709;28;9796;-79
2022/03/01 02:28:00;;;;;;;;;81.67;65.00;;;;;5.91;65.25;100371.34;4954675;28;9025;-82
2022/03/01 02:30:28;;;;;;;;;75.00;56.67;;;;;5.85;65.45;100369.44;4951554;28;9173;-78
2022/03/01 02:32:57;;;;;;;;;78.00;63.00;;;;;5.80;65.50;100367.53;4951864;28;8965;-79
2022/03/01 02:35:26;;;;;;;;;86.00;64.00;;;;;5.74;65.60;100364.75;4956268;28;8962;-80
2022/03/01 02:37:56;;;;;;;;;78.00;60.00;;;;;5.68;65.61;100362.84;4939709;28;8910;-80
2022/03/01 02:40:24;;;;;;;;;83.67;64.33;;;;;5.65;65.67;100362.75;4952015;28;8952;-78
2022/03/01 02:42:53;;;;;;;;;79.75;64.25;;;;;5.57;65.95;100364.22;4986768;28;9230;-78
2022/03/01 02:45:21;;;;;;;;;79.00;62.33;;;;;5.52;66.10;100361.50;4986808;28;8880;-78
2022/03/01 02:47:50;;;;;;;;;77.25;62.50;;;;;5.52;65.93;100373.53;4970421;28;9046;-77
2022/03/01 02:50:19;;;;;;;;;79.00;64.25;;;;;5.49;66.46;100368.25;4966692;28;8880;-78
2022/03/01 02:52:48;;;;;;;;;88.67;65.00;;;;;5.43;66.19;100361.19;4970723;28;8864;-79
2022/03/01 02:55:18;;;;;;;;;79.33;64.33;;;;;5.39;66.26;100367.09;4989818;28;8969;-78
2022/03/01 02:57:46;;;;;;;;;76.75;58.75;;;;;4.67;67.93;100368.91;4989491;28;9090;-79
2022/03/01 03:00:15;;;;;;;;;80.50;60.50;;;;;3.99;70.65;100374.88;4973733;28;8873;-83
2022/03/01 03:02:44;;;;;;;;;74.33;62.00;;;;;3.97;71.79;100373.94;4989838;28;8862;-80
2022/03/01 03:05:13;;;;;;;;;72.75;59.75;;;;;4.10;71.10;100371.94;4970753;28;8969;-81
2022/03/01 03:07:43;;;;;;;;;80.00;61.75;;;;;4.31;70.71;100376.16;4974882;28;8912;-78
2022/03/01 03:10:13;;;;;;;;;73.75;58.25;;;;;4.44;69.79;100375.81;5005688;28;8854;-78
2022/03/01 03:12:45;;;;;;;;;76.75;62.25;;;;;4.63;69.75;100377.38;4942573;28;8902;-81
2022/03/01 03:15:14;;;;;;;;;75.50;60.50;;;;;4.80;68.91;100377.06;4969772;28;8868;-78
2022/03/01 03:17:45;;;;;;;;;69.50;56.00;;;;;4.94;68.22;100378.47;4982900;28;8878;-80
2022/03/01 03:20:14;;;;;;;;;74.00;59.50;;;;;4.97;68.43;100378.59;5008560;28;8980;-81
2022/03/01 03:22:43;;;;;;;;;68.75;57.25;;;;;5.05;67.72;100379.72;4989826;28;8870;-79
2022/03/01 03:25:11;;;;;;;;;79.50;62.50;;;;;5.10;67.86;100381.59;5008571;28;8906;-78
2022/03/01 03:27:40;;;;;;;;;79.75;62.00;;;;;5.18;67.58;100370.69;5008330;28;8901;-80
2022/03/01 03:30:12;;;;;;;;;66.50;53.50;;;;;5.26;67.71;100378.72;5007929;28;8858;-76
2022/03/01 03:32:41;;;;;;;;;70.00;56.50;;;;;5.33;67.26;100380.69;5007274;28;8894;-78
2022/03/01 03:35:12;;;;;;;;;73.75;60.75;;;;;5.39;67.06;100370.53;5007348;28;8839;-77
2022/03/01 03:37:41;;;;;;;;;74.50;59.75;;;;;5.49;66.84;100383.78;4996885;28;8939;-77
2022/03/01 03:40:10;;;;;;;;;78.00;60.50;;;;;5.53;66.18;100380.47;5006314;28;8988;-77
2022/03/01 03:42:41;;;;;;;;;73.00;59.75;;;;;5.51;66.44;100377.81;5008017;28;8944;-78
2022/03/01 03:45:13;;;;;;;;;82.75;63.00;;;;;5.52;65.72;100381.28;5007087;28;8878;-79
2022/03/01 03:47:43;;;;;;;;;69.75;56.25;;;;;5.55;65.78;100377.09;4991458;28;8885;-79
2022/03/01 03:50:12;;;;;;;;;76.25;61.00;;;;;5.58;65.57;100378.91;5007393;28;8870;-79
2022/03/01 03:52:41;;;;;;;;;74.75;60.75;;;;;5.48;65.45;100377.72;4995604;28;8989;-81
2022/03/01 03:55:11;;;;;;;;;84.75;65.25;;;;;5.43;65.28;100380.16;4985742;28;9000;-81
2022/03/01 03:57:41;;;;;;;;;74.00;59.50;;;;;5.39;65.69;100378.31;4994841;28;8889;-76
2022/03/01 04:00:15;;;;;;;;;74.00;58.25;;;;;5.39;65.74;100375.72;5022896;28;8882;-77
2022/03/01 04:02:45;;;;;;;;;80.50;62.25;;;;;5.42;65.40;100377.50;5022261;28;8866;-77
2022/03/01 04:05:15;;;;;;;;;78.00;62.75;;;;;5.48;65.62;100380.28;5001866;28;8984;-78
2022/03/01 04:07:45;;;;;;;;;75.00;61.00;;;;;5.42;65.33;100380.97;4989363;28;8986;-78
2022/03/01 04:10:15;;;;;;;;;80.75;62.00;;;;;5.29;65.51;100373.63;5003012;28;8850;-78
2022/03/01 04:12:44;;;;;;;;;79.33;63.33;;;;;5.01;66.49;100382.13;5010677;28;8979;-78
2022/03/01 04:15:14;;;;;;;;;77.00;59.67;;;;;4.60;68.20;100384.13;5010722;28;8950;-79
2022/03/01 04:17:43;;;;;;;;;82.00;63.25;;;;;4.35;69.53;100384.88;5010375;28;8950;-78
2022/03/01 04:20:12;;;;;;;;;83.67;62.00;;;;;4.31;69.89;100386.50;5003204;28;8899;-78
2022/03/01 04:22:41;;;;;;;;;80.00;61.00;;;;;4.19;70.22;100384.28;5003327;28;9185;-78
2022/03/01 04:25:11;;;;;;;;;79.25;63.00;;;;;4.41;69.88;100385.13;4990860;28;8989;-77
2022/03/01 04:27:40;;;;;;;;;85.50;65.50;;;;;4.47;69.46;100381.06;4990889;28;8896;-79
2022/03/01 04:30:11;;;;;;;;;89.67;66.33;;;;;4.66;69.39;100374.88;5007565;28;9636;-77
2022/03/01 04:32:41;;;;;;;;;86.75;65.00;;;;;4.87;68.96;100376.47;4977235;28;9101;-78
2022/03/01 04:35:11;;;;;;;;;81.00;63.25;;;;;5.03;68.50;100378.78;5009917;28;8886;-78
2022/03/01 04:37:41;;;;;;;;;79.75;63.25;;;;;5.19;67.95;100371.56;5009454;28;8878;-81
2022/03/01 04:40:12;;;;;;;;;76.25;63.50;;;;;5.32;67.57;100375.47;5010244;28;8850;-78
2022/03/01 04:42:42;;;;;;;;;82.75;65.50;;;;;5.40;66.54;100384.34;4998212;28;8913;-78
2022/03/01 04:45:11;;;;;;;;;76.25;61.75;;;;;5.48;66.63;100385.47;4994026;28;8890;-83
2022/03/01 04:47:42;;;;;;;;;81.75;64.25;;;;;5.56;66.14;100384.03;4993986;28;8912;-78
2022/03/01 04:50:12;;;;;;;;;74.00;61.25;;;;;5.62;65.89;100379.06;5009896;28;8886;-78
2022/03/01 04:52:42;;;;;;;;;84.33;65.00;;;;;5.67;65.65;100376.59;4991037;28;8969;-80
2022/03/01 04:55:13;;;;;;;;;81.33;64.33;;;;;5.66;65.34;100383.50;4969797;28;8952;-80
2022/03/01 04:57:43;;;;;;;;;81.33;62.00;;;;;5.71;65.64;100387.94;4992177;28;9103;-79
2022/03/01 05:00:13;;;;;;;;;75.75;61.25;;;;;5.75;65.37;100374.31;4992291;28;9154;-83
2022/03/01 05:02:45;;;;;;;;;77.50;57.50;;;;;5.69;65.11;100377.56;4975393;28;8971;-82
2022/03/01 05:05:15;;;;;;;;;80.50;62.25;;;;;5.72;65.46;100380.22;4992229;28;8880;-81
2022/03/01 05:07:46;;;;;;;;;69.00;56.00;;;;;5.77;65.05;100386.44;5003712;28;8858;-78
2022/03/01 05:10:18;;;;;;;;;80.25;61.25;;;;;5.83;64.99;100381.47;4991657;28;8866;-78
2022/03/01 05:12:49;;;;;;;;;79.00;63.75;;;;;5.88;64.93;100373.84;4990443;28;8851;-78
2022/03/01 05:15:18;;;;;;;;;91.67;72.00;;;;;5.93;64.90;100384.34;4975701;28;9628;-78
2022/03/01 05:17:49;;;;;;;;;78.00;61.33;;;;;5.95;64.49;100383.59;4974776;28;9618;-77
2022/03/01 05:20:19;;;;;;;;;79.75;62.75;;;;;6.00;64.61;100379.44;4971956;28;9049;-79
2022/03/01 05:22:48;;;;;;;;;77.50;61.75;;;;;6.04;64.80;100383.00;4971852;28;9658;-78
2022/03/01 05:25:19;;;;;;;;;80.00;61.75;;;;;6.02;64.06;100387.25;4979861;28;8955;-77
2022/03/01 05:27:50;;;;;;;;;82.25;61.75;;;;;6.00;64.28;100388.94;5007584;28;8870;-76
2022/03/01 05:30:20;;;;;;;;;81.00;63.33;;;;;6.05;63.86;100387.38;4991406;28;8886;-79
2022/03/01 05:32:52;;;;;;;;;81.00;63.67;;;;;5.93;64.21;100387.81;4943702;28;9244;-80
2022/03/01 05:35:23;;;;;;;;;100.50;79.75;;;;;5.96;64.36;100387.06;4991874;28;9416;-79
2022/03/01 05:37:54;;;;;;;;;74.25;61.50;;;;;5.96;64.52;100385.34;4991841;28;10210;-78
2022/03/01 05:40:25;;;;;;;;;79.25;62.75;;;;;5.97;64.42;100391.41;4975381;28;8898;-78
2022/03/01 05:42:55;;;;;;;;;88.67;67.00;;;;;5.92;64.33;100386.06;4993256;28;8856;-79
2022/03/01 05:45:25;;;;;;;;;85.00;67.33;;;;;5.95;64.28;100393.03;4990719;28;9340;-78
2022/03/01 05:47:56;;;;;;;;;92.25;71.50;;;;;5.99;64.57;100400.09;4990630;28;9498;-78
2022/03/01 05:50:26;;;;;;;;;81.00;65.00;;;;;5.97;64.68;100405.25;4926136;28;9586;-78
2022/03/01 05:52:55;;;;;;;;;85.00;65.00;;;;;5.99;64.52;100406.19;4992427;28;10013;-80
2022/03/01 05:55:24;;;;;;;;;81.00;64.00;;;;;6.04;65.14;100390.78;5008072;28;9357;-78
2022/03/01 05:57:52;;;;;;;;;86.00;65.00;;;;;6.18;64.48;100398.97;5008546;28;9257;-80
2022/03/01 06:00:22;;;;;;;;;78.67;62.67;;;;;6.19;63.93;100398.16;4990635;28;9108;-77
2022/03/01 06:02:51;;;;;;;;;86.67;69.00;;;;;6.23;64.01;100400.84;4979420;28;9137;-79
2022/03/01 06:05:29;;;;;;;;;85.00;65.67;;;;;6.30;63.67;100401.06;4987490;28;9381;-81
2022/03/01 06:07:58;;;;;;;;;78.67;63.33;;;;;6.33;63.77;100403.72;4984554;28;9139;-78
2022/03/01 06:10:28;;;;;;;;;85.33;67.33;;;;;6.35;63.91;100409.84;4969503;28;9272;-79
2022/03/01 06:12:57;;;;;;;;;81.67;62.67;;;;;6.35;63.82;100409.84;4986721;28;9100;-80
2022/03/01 06:15:25;;;;;;;;;78.33;61.00;;;;;6.33;64.07;100401.16;4953677;28;9196;-77
2022/03/01 06:17:55;;;;;;;;;67.50;57.75;;;;;6.36;63.33;100412.47;4987392;28;8934;-78
2022/03/01 06:20:23;;;;;;;;;85.33;66.67;;;;;6.42;63.67;100416.97;4956391;28;8874;-77
2022/03/01 06:22:56;;;;;;;;;79.67;61.00;;;;;6.51;63.80;100422.44;4987092;28;9342;-79
2022/03/01 06:25:25;;;;;;;;;79.67;64.33;;;;;6.60;63.39;100417.53;4970951;28;9119;-78
2022/03/01 06:27:54;;;;;;;;;86.67;67.00;;;;;6.70;62.98;100417.81;4955143;28;9176;-76
2022/03/01 06:30:23;;;;;;;;;74.00;60.25;;;;;6.79;62.81;100423.25;4954908;28;9181;-77
2022/03/01 06:32:53;;;;;;;;;84.67;64.67;;;;;6.85;61.67;100420.84;4962421;28;8888;-80
2022/03/01 06:35:22;;;;;;;;;88.33;68.33;;;;;6.87;61.82;100428.66;4984350;28;9074;-78
2022/03/01 06:37:55;;;;;;;;;86.00;63.67;;;;;6.91;61.52;100426.19;5016089;28;9276;-83
2022/03/01 06:40:24;;;;;;;;;89.33;68.67;;;;;6.91;61.37;100431.38;4973919;28;9410;-78
2022/03/01 06:42:53;;;;;;;;;83.33;67.67;;;;;6.77;61.31;100425.81;4971553;28;9499;-81
2022/03/01 06:45:22;;;;;;;;;81.33;66.00;;;;;6.79;61.52;100431.03;4982902;28;9297;-79
2022/03/01 06:47:51;;;;;;;;;82.33;62.33;;;;;6.80;61.65;100425.88;5008889;28;10103;-81
2022/03/01 06:50:19;;;;;;;;;79.50;61.00;;;;;6.88;61.33;100426.13;4998091;28;9042;-78
2022/03/01 06:52:49;;;;;;;;;79.00;62.50;;;;;6.94;61.03;100433.19;4986412;28;8908;-79
2022/03/01 06:55:21;;;;;;;;;85.67;65.00;;;;;6.86;61.46;100434.66;4988872;28;9020;-79
2022/03/01 06:57:51;;;;;;;;;86.33;65.00;;;;;6.63;61.88;100440.94;5002680;28;10093;-78
2022/03/01 07:00:19;;;;;;;;;80.33;65.33;;;;;6.53;61.82;100436.31;4990468;28;8969;-79
2022/03/01 07:02:48;;;;;;;;;91.00;69.33;;;;;6.23;62.59;100438.84;4980692;28;9375;-79
2022/03/01 07:05:19;;;;;;;;;91.75;70.75;;;;;6.03;62.78;100445.97;5003551;28;9431;-79
2022/03/01 07:07:48;;;;;;;;;91.50;71.00;;;;;6.10;62.86;100449.63;4988622;28;9577;-78
2022/03/01 07:10:16;;;;;;;;;99.75;76.75;;;;;6.16;62.72;100449.81;5007491;28;9507;-77
2022/03/01 07:12:47;;;;;;;;;92.25;72.50;;;;;6.02;62.63;100449.41;4990743;28;10000;-79
2022/03/01 07:15:16;;;;;;;;;93.75;71.50;;;;;5.30;65.72;100455.56;4990112;28;9931;-79
2022/03/01 07:17:46;;;;;;;;;101.75;80.00;;;;;5.24;66.58;100452.78;5008424;28;10168;-81
2022/03/01 07:20:16;;;;;;;;;95.25;74.50;;;;;5.39;66.67;100452.44;5006456;28;10273;-81
2022/03/01 07:22:44;;;;;;;;;96.50;76.75;;;;;5.20;67.12;100453.50;5022789;28;10113;-81
2022/03/01 07:25:14;;;;;;;;;98.50;73.75;;;;;5.43;67.27;100456.88;5023314;28;10171;-79
2022/03/01 07:27:50;;;;;;;;;97.50;71.25;;;;;5.44;67.06;100462.13;5013166;28;10064;-79
2022/03/01 07:30:19;;;;;;;;;90.33;70.00;;;;;5.58;67.01;100464.28;5029503;28;9585;-79
2022/03/01 07:32:50;;;;;;;;;80.00;61.00;;;;;5.62;66.76;100464.44;4980710;28;9335;-82
2022/03/01 07:35:19;;;;;;;;;83.33;64.33;;;;;5.71;66.59;100463.88;5029132;28;8890;-82
2022/03/01 07:37:48;;;;;;;;;78.25;62.25;;;;;5.81;66.61;100463.34;4996755;28;9044;-80
2022/03/01 07:40:20;;;;;;;;;83.67;65.00;;;;;5.90;66.66;100465.38;5028651;28;8882;-80
2022/03/01 07:42:51;;;;;;;;;72.00;54.00;;;;;5.92;66.01;100462.84;5009327;28;9249;-81
2022/03/01 07:45:20;;;;;;;;;81.50;61.25;;;;;6.00;65.54;100472.63;5020262;28;8912;-80
2022/03/01 07:47:51;;;;;;;;;84.00;58.75;;;;;5.99;65.48;100470.91;4981384;28;8985;-80
2022/03/01 07:50:21;;;;;;;;;67.75;57.00;;;;;6.08;65.31;100472.88;4988513;28;9662;-80
2022/03/01 07:52:52;;;;;;;;;74.75;56.25;;;;;6.13;65.08;100465.28;4974714;28;9822;-79
2022/03/01 07:55:21;;;;;;;;;70.50;56.50;;;;;6.18;64.37;100477.56;4988394;28;8963;-81
2022/03/01 07:57:54;;;;;;;;;62.25;48.75;;;;;6.11;63.59;100474.72;4995697;28;8877;-82
2022/03/01 08:00:24;;;;;;;;;65.75;53.75;;;;;6.19;63.75;100476.72;4997574;28;8971;-82
2022/03/01 08:02:53;;;;;;;;;67.75;54.00;;;;;6.14;63.47;100478.25;5017663;28;8873;-81
2022/03/01 08:05:23;;;;;;;;;65.00;49.50;;;;;6.24;63.38;100475.16;4976514;28;8864;-82
2022/03/01 08:07:57;;;;;;;;;69.75;56.25;;;;;6.29;63.39;100482.19;4969903;28;8871;-82
2022/03/01 08:10:27;;;;;;;;;66.25;51.25;;;;;6.15;63.21;100484.34;4956407;28;8918;-83
2022/03/01 08:12:58;;;;;;;;;63.00;49.50;;;;;6.04;63.70;100481.38;4961881;28;8880;-80
2022/03/01 08:15:27;;;;;;;;;64.00;52.50;;;;;5.91;63.91;100479.19;4952820;28;8867;-82
2022/03/01 08:17:57;;;;;;;;;61.25;49.25;;;;;5.86;63.90;100485.09;4976339;28;8877;-81
2022/03/01 08:20:28;;;;;;;;;57.75;49.00;;;;;5.67;64.01;100487.88;4988730;28;8888;-80
2022/03/01 08:22:58;;;;;;;;;61.75;48.50;;;;;5.75;63.67;100489.03;4974551;28;8872;-81
2022/03/01 08:25:27;;;;;;;;;48.50;43.75;;;;;5.79;63.71;100493.47;4972613;28;8892;-80
2022/03/01 08:28:00;;;;;;;;;66.75;52.00;;;;;5.86;64.12;100484.22;4980322;28;8957;-82
2022/03/01 08:30:30;;;;;;;;;63.00;50.50;;;;;5.93;63.42;100474.94;4975257;28;9142;-82
2022/03/01 08:32:59;;;;;;;;;59.25;49.00;;;;;6.01;63.16;100476.09;4929070;28;8908;-81
2022/03/01 08:35:29;;;;;;;;;59.00;47.75;;;;;6.18;62.65;100479.25;4991763;28;9620;-80
2022/03/01 08:38:02;;;;;;;;;45.50;41.50;;;;;6.30;61.77;100478.78;5008193;28;8877;-80
2022/03/01 08:40:33;;;;;;;;;52.00;44.25;;;;;6.37;61.30;100470.34;5040177;28;8885;-82
2022/03/01 08:43:03;;;;;;;;;49.75;44.25;;;;;6.38;61.00;100467.81;4992568;28;8890;-79
2022/03/01 08:45:32;;;;;;;;;50.00;41.50;;;;;6.51;61.18;100466.47;4998375;28;9042;-79
2022/03/01 08:48:01;;;;;;;;;62.25;47.25;;;;;6.62;60.80;100459.91;4995740;28;8884;-81
2022/03/01 08:50:30;;;;;;;;;52.50;47.00;;;;;6.68;60.60;100467.00;5009647;28;8977;-81
2022/03/01 08:53:16;;;;;;;;;61.75;48.25;;;;;6.77;60.34;100461.22;4994010;28;8885;-81
2022/03/01 08:55:45;;;;;;;;;56.25;47.00;;;;;6.79;60.12;100456.94;4975158;28;8902;-82
2022/03/01 08:58:15;;;;;;;;;57.25;47.75;;;;;6.76;60.08;100464.63;4998567;28;8888;-80
2022/03/01 09:00:45;;;;;;;;;55.50;48.25;;;;;6.80;60.12;100466.47;5005971;28;8841;-81
2022/03/01 09:03:14;;;;;;;;;61.50;48.00;;;;;6.80;60.13;100469.06;5006126;28;8876;-78
2022/03/01 09:06:05;;;;;;;;;64.00;52.25;;;;;6.91;59.78;100472.84;4980046;28;8985;-81
2022/03/01 09:08:35;;;;;;;;;63.75;49.75;;;;;7.01;59.46;100474.00;4998504;28;8854;-80
2022/03/01 09:11:05;;;;;;;;;66.00;51.75;;;;;7.13;59.55;100469.16;4994856;28;8866;-79
2022/03/01 09:13:35;;;;;;;;;65.00;52.75;;;;;7.23;59.01;100462.53;5010569;28;8896;-83
2022/03/01 09:16:04;;;;;;;;;65.75;52.25;;;;;7.28;58.33;100467.81;5010507;28;8905;-80
2022/03/01 09:18:34;;;;;;;;;60.25;50.25;;;;;7.39;57.56;100459.53;4965035;28;8960;-81
2022/03/01 09:21:04;;;;;;;;;61.50;48.50;;;;;7.39;57.36;100459.53;4995727;28;8870;-79
2022/03/01 09:23:33;;;;;;;;;61.25;48.00;;;;;7.52;57.57;100457.25;5008842;28;9047;-82
2022/03/01 09:26:03;;;;;;;;;67.75;51.50;;;;;7.58;57.27;100449.59;5008321;28;8862;-79
2022/03/01 09:28:32;;;;;;;;;65.50;52.25;;;;;7.69;56.31;100447.28;4975912;28;8987;-81
2022/03/01 09:31:02;;;;;;;;;38.25;24.50;;;;;7.03;56.80;100448.97;4975906;28;8998;-80
2022/03/01 09:33:33;;;;;;;;;62.50;50.00;;;;;6.62;58.34;100453.84;4991427;28;8850;-80
2022/03/01 09:36:02;;;;;;;;;22.00;14.00;;;;;6.64;57.42;100450.47;4992275;28;8920;-80
2022/03/01 09:38:33;;;;;;;;;52.00;46.00;;;;;6.93;57.14;100454.75;5011200;28;8869;-82
2022/03/01 09:41:02;;;;;;;;;58.75;45.25;;;;;7.21;56.74;100449.50;4990618;28;8874;-82
2022/03/01 09:43:31;;;;;;;;;60.50;51.50;;;;;7.12;56.66;100449.25;4998879;28;8915;-80
2022/03/01 09:46:01;;;;;;;;;45.50;41.50;;;;;7.12;56.42;100445.78;4972386;28;8908;-81
2022/03/01 09:48:30;;;;;;;;;47.50;41.50;;;;;7.38;55.11;100452.56;4972193;28;8843;-78
2022/03/01 09:51:01;;;;;;;;;59.25;46.50;;;;;7.63;55.53;100454.94;5006599;28;8894;-81
2022/03/01 09:53:30;;;;;;;;;63.00;52.25;;;;;7.91;55.71;100448.72;4991409;28;8890;-81
2022/03/01 09:55:59;;;;;;;;;64.25;50.25;;;;;8.19;55.22;100445.06;5003310;28;8945;-84
2022/03/01 09:58:28;;;;;;;;;72.75;56.25;;;;;8.41;54.59;100451.63;5011801;28;8994;-83
2022/03/01 10:00:58;;;;;;;;;72.00;55.00;;;;;8.62;54.74;100442.59;5010153;28;8869;-82
2022/03/01 10:03:29;;;;;;;;;66.00;52.33;;;;;8.59;52.33;100446.00;4994808;28;8862;-81
2022/03/01 10:06:07;;;;;;;;;59.50;48.50;;;;;8.81;51.58;100444.75;4997650;28;8900;-81
2022/03/01 10:08:36;;;;;;;;;62.75;50.75;;;;;8.93;51.83;100451.94;4985105;28;13338;-81
2022/03/01 10:11:05;;;;;;;;;58.50;43.50;;;;;8.96;50.61;100445.06;5001515;28;8994;-83
2022/03/01 10:13:36;;;;;;;;;64.75;50.75;;;;;8.96;51.55;100450.28;4981034;28;8964;-81
2022/03/01 10:16:07;;;;;;;;;68.25;54.00;;;;;8.64;51.41;100444.41;4976198;28;8865;-72
2022/03/01 10:18:39;;;;;;;;;67.00;54.00;;;;;7.53;55.11;100456.41;5005442;28;8984;-81
2022/03/01 10:21:10;;;;;;;;;63.25;51.50;;;;;6.78;58.14;100452.59;4991418;28;8870;-80
2022/03/01 10:23:41;;;;;;;;;62.75;50.75;;;;;5.82;61.84;100465.13;4981321;28;8891;-83
2022/03/01 10:26:15;;;;;;;;;63.75;51.00;;;;;4.71;65.30;100472.31;4990187;28;8878;-81
2022/03/01 10:28:45;;;;;;;;;59.00;47.00;;;;;4.78;65.67;100467.47;4998660;28;8874;-82
2022/03/01 10:31:16;;;;;;;;;64.00;52.50;;;;;5.23;64.32;100474.25;4992400;28;10694;-82
2022/03/01 10:34:00;;;;;;;;;63.75;52.00;;;;;5.57;62.68;100470.28;4992072;28;8889;-81
2022/03/01 10:36:31;;;;;;;;;58.00;48.75;;;;;5.70;61.93;100459.53;5010727;28;8854;-79
2022/03/01 10:39:01;;;;;;;;;57.25;48.00;;;;;5.85;61.79;100460.03;5003844;28;8941;-82
2022/03/01 10:41:32;;;;;;;;;61.00;48.00;;;;;6.02;60.66;100458.03;4998040;28;8838;-82
2022/03/01 10:44:03;;;;;;;;;54.50;45.75;;;;;6.28;60.00;100454.53;4990570;28;8862;-82
2022/03/01 10:46:39;;;;;;;;;61.75;53.75;;;;;6.13;60.76;100460.97;5006847;28;8908;-81
2022/03/01 10:49:12;;;;;;;;;63.25;52.25;;;;;5.71;61.96;100455.22;5022854;28;8846;-82
2022/03/01 10:51:51;;;;;;;;;50.50;45.00;;;;;5.73;62.80;100449.28;5007879;28;8868;-81
2022/03/01 10:54:29;;;;;;;;;58.25;48.50;;;;;5.95;61.68;100447.41;5005412;28;8878;-82
2022/03/01 10:56:59;;;;;;;;;55.00;45.25;;;;;6.02;60.54;100442.50;5001193;28;8851;-80
2022/03/01 10:59:30;;;;;;;;;62.50;49.50;;;;;6.19;59.84;100445.63;5002787;28;9631;-81
2022/03/01 11:01:59;;;;;;;;;56.25;48.00;;;;;6.25;59.58;100445.81;5021004;28;8955;-81
2022/03/01 11:04:30;;;;;;;;;51.25;43.50;;;;;6.48;58.15;100437.88;4988986;28;8858;-85
2022/03/01 11:07:00;;;;;;;;;45.00;39.00;;;;;6.22;57.55;100443.16;4973568;28;8952;-82
2022/03/01 11:09:32;;;;;;;;;45.25;41.75;;;;;6.46;57.10;100442.13;4987224;28;8870;-81
2022/03/01 11:12:04;;;;;;;;;45.50;42.25;;;;;6.58;56.96;100441.66;4970583;28;8913;-80
2022/03/01 11:14:40;;;;;;;;;46.50;40.00;;;;;6.74;57.69;100430.88;4973517;28;8866;-81
2022/03/01 11:17:19;;;;;;;;;45.25;39.75;;;;;5.59;60.64;100437.56;4992966;28;8850;-81
2022/03/01 11:19:58;;;;;;;;;41.25;38.50;;;;;4.67;64.64;100441.22;5009109;28;8970;-82
2022/03/01 11:22:33;;;;;;;;;50.75;42.50;;;;;4.23;66.60;100439.50;5042627;28;9002;-83
2022/03/01 11:25:02;;;;;;;;;44.50;40.50;;;;;4.49;65.93;100433.66;4981102;28;8886;-82
2022/03/01 11:27:31;;;;;;;;;40.00;37.25;;;;;4.04;67.70;100436.19;5009307;28;8900;-83
2022/03/01 11:30:09;;;;;;;;;41.50;35.00;;;;;4.03;68.73;100433.56;4951641;28;9480;-83
2022/03/01 11:32:39;;;;;;;;;43.75;42.50;;;;;4.60;67.88;100428.91;4903920;28;8847;-84
2022/03/01 11:35:19;;;;;;;;;35.75;34.00;;;;;3.93;68.10;100426.25;4947751;28;8958;-82
2022/03/01 11:38:00;;;;;;;;;29.50;27.25;;;;;3.69;69.02;100419.31;4945538;29;8897;-81